sensor_id;sensor_type;location;lat;lon;timestamp;pressure;altitude;pressure_sealevel;temperature;humidity
73700;BME280;62005;50.082;8.988;2022-09-09T00:01:36;99949.94;;;16.97;71.20
73700;BME280;62005;50.082;8.988;2022-09-09T00:04:15;99933.28;;;16.88;70.84
73700;BME280;62005;50.082;8.988;2022-09-09T00:07:13;99934.13;;;16.88;71.30
73700;BME280;62005;50.082;8.988;2022-09-09T00:10:12;99944.22;;;16.93;70.79
73700;BME280;62005;50.082;8.988;2022-09-09T00:15:45;99933.28;;;16.93;70.91
73700;BME280;62005;50.082;8.988;2022-09-09T00:20:55;99945.03;;;16.99;70.28
73700;BME280;62005;50.082;8.988;2022-09-09T00:23:29;99942.56;;;17.02;70.63
73700;BME280;62005;50.082;8.988;2022-09-09T00:28:50;99940.91;;;17.01;71.40
73700;BME280;62005;50.082;8.988;2022-09-09T00:31:23;99938.19;;;16.96;71.32
73700;BME280;62005;50.082;8.988;2022-09-09T00:33:50;99916.63;;;16.79;71.53
73700;BME280;62005;50.082;8.988;2022-09-09T00:36:21;99940.41;;;16.84;70.91
73700;BME280;62005;50.082;8.988;2022-09-09T00:39:00;99931.66;;;16.77;70.88
73700;BME280;62005;50.082;8.988;2022-09-09T00:44:08;99933.28;;;16.73;71.46
73700;BME280;62005;50.082;8.988;2022-09-09T00:50:03;99933.28;;;16.63;71.82
73700;BME280;62005;50.082;8.988;2022-09-09T00:57:52;99933.84;;;16.60;71.48
73700;BME280;62005;50.082;8.988;2022-09-09T01:00:29;99945.84;;;16.59;71.45
73700;BME280;62005;50.082;8.988;2022-09-09T01:03:22;99941.75;;;16.51;71.74
73700;BME280;62005;50.082;8.988;2022-09-09T01:11:20;99920.69;;;16.32;71.69
73700;BME280;62005;50.082;8.988;2022-09-09T01:13:47;99919.84;;;16.31;71.90
73700;BME280;62005;50.082;8.988;2022-09-09T01:16:15;99930.50;;;16.38;71.64
73700;BME280;62005;50.082;8.988;2022-09-09T01:18:48;99927.50;;;16.29;72.48
73700;BME280;62005;50.082;8.988;2022-09-09T01:24:22;99913.31;;;16.27;72.08
73700;BME280;62005;50.082;8.988;2022-09-09T01:26:52;99919.63;;;16.33;71.92
73700;BME280;62005;50.082;8.988;2022-09-09T01:29:21;99929.41;;;16.34;72.22
73700;BME280;62005;50.082;8.988;2022-09-09T01:31:58;99924.50;;;16.31;72.13
73700;BME280;62005;50.082;8.988;2022-09-09T01:34:27;99928.31;;;16.30;72.47
73700;BME280;62005;50.082;8.988;2022-09-09T01:37:07;99910.88;;;16.26;73.47
73700;BME280;62005;50.082;8.988;2022-09-09T01:39:35;99919.59;;;16.28;73.08
73700;BME280;62005;50.082;8.988;2022-09-09T01:42:01;99918.50;;;16.34;72.73
73700;BME280;62005;50.082;8.988;2022-09-09T01:44:27;99895.56;;;16.20;73.03
73700;BME280;62005;50.082;8.988;2022-09-09T01:46:55;99903.75;;;16.20;73.03
73700;BME280;62005;50.082;8.988;2022-09-09T01:49:20;99917.41;;;16.25;72.89
73700;BME280;62005;50.082;8.988;2022-09-09T01:51:52;99907.84;;;16.17;72.91
73700;BME280;62005;50.082;8.988;2022-09-09T01:54:20;99915.75;;;16.19;72.94
73700;BME280;62005;50.082;8.988;2022-09-09T02:00:09;99919.59;;;16.18;73.87
73700;BME280;62005;50.082;8.988;2022-09-09T02:03:00;99913.03;;;16.14;73.57
73700;BME280;62005;50.082;8.988;2022-09-09T02:05:42;99915.19;;;16.12;74.07
73700;BME280;62005;50.082;8.988;2022-09-09T02:08:15;99904.25;;;16.02;74.42
73700;BME280;62005;50.082;8.988;2022-09-09T02:10:47;99903.19;;;15.98;73.99
73700;BME280;62005;50.082;8.988;2022-09-09T02:13:18;99916.81;;;16.03;73.60
73700;BME280;62005;50.082;8.988;2022-09-09T02:18:20;99909.16;;;15.95;73.96
73700;BME280;62005;50.082;8.988;2022-09-09T02:20:49;99918.16;;;16.00;74.81
73700;BME280;62005;50.082;8.988;2022-09-09T02:23:16;99916.25;;;15.96;74.18
73700;BME280;62005;50.082;8.988;2022-09-09T02:25:43;99919.53;;;15.98;74.44
73700;BME280;62005;50.082;8.988;2022-09-09T02:28:10;99918.97;;;15.96;75.00
73700;BME280;62005;50.082;8.988;2022-09-09T02:30:39;99929.91;;;16.01;74.10
73700;BME280;62005;50.082;8.988;2022-09-09T02:33:07;99920.06;;;15.95;74.63
73700;BME280;62005;50.082;8.988;2022-09-09T02:35:35;99915.13;;;15.92;74.96
73700;BME280;62005;50.082;8.988;2022-09-09T02:38:08;99921.69;;;15.96;74.89
73700;BME280;62005;50.082;8.988;2022-09-09T02:40:35;99900.94;;;15.80;75.32
73700;BME280;62005;50.082;8.988;2022-09-09T02:43:00;99900.38;;;15.78;74.35
73700;BME280;62005;50.082;8.988;2022-09-09T02:45:34;99926.63;;;15.99;74.40
73700;BME280;62005;50.082;8.988;2022-09-09T02:48:21;99928.28;;;16.00;75.17
73700;BME280;62005;50.082;8.988;2022-09-09T02:50:59;99917.06;;;15.96;75.33
73700;BME280;62005;50.082;8.988;2022-09-09T02:56:17;99932.59;;;15.96;74.68
73700;BME280;62005;50.082;8.988;2022-09-09T02:58:45;99927.69;;;15.93;74.81
73700;BME280;62005;50.082;8.988;2022-09-09T03:01:11;99924.41;;;15.91;75.14
73700;BME280;62005;50.082;8.988;2022-09-09T03:03:37;99918.13;;;15.90;75.29
73700;BME280;62005;50.082;8.988;2022-09-09T03:06:03;99920.06;;;15.95;75.49
73700;BME280;62005;50.082;8.988;2022-09-09T03:08:28;99906.44;;;15.90;74.90
73700;BME280;62005;50.082;8.988;2022-09-09T03:10:57;99929.91;;;16.06;75.53
73700;BME280;62005;50.082;8.988;2022-09-09T03:13:23;99898.53;;;15.88;74.81
73700;BME280;62005;50.082;8.988;2022-09-09T03:15:48;99925.00;;;16.03;75.76
73700;BME280;62005;50.082;8.988;2022-09-09T03:18:14;99929.34;;;16.04;74.92
73700;BME280;62005;50.082;8.988;2022-09-09T03:20:39;99913.00;;;16.04;75.05
73700;BME280;62005;50.082;8.988;2022-09-09T03:23:07;99923.09;;;16.13;75.59
73700;BME280;62005;50.082;8.988;2022-09-09T03:25:32;99926.09;;;16.12;75.06
73700;BME280;62005;50.082;8.988;2022-09-09T03:27:58;99920.09;;;16.15;74.83
73700;BME280;62005;50.082;8.988;2022-09-09T03:30:26;99916.84;;;16.13;75.64
73700;BME280;62005;50.082;8.988;2022-09-09T03:32:51;99907.81;;;16.02;75.46
73700;BME280;62005;50.082;8.988;2022-09-09T03:35:17;99920.66;;;16.17;75.73
73700;BME280;62005;50.082;8.988;2022-09-09T03:37:43;99919.84;;;16.11;76.63
73700;BME280;62005;50.082;8.988;2022-09-09T03:40:09;99906.47;;;16.05;75.24
73700;BME280;62005;50.082;8.988;2022-09-09T03:42:36;99922.31;;;16.13;75.49
73700;BME280;62005;50.082;8.988;2022-09-09T03:45:07;99911.38;;;16.08;75.51
73700;BME280;62005;50.082;8.988;2022-09-09T03:47:34;99918.47;;;16.09;76.34
73700;BME280;62005;50.082;8.988;2022-09-09T03:49:59;99908.63;;;16.03;75.72
73700;BME280;62005;50.082;8.988;2022-09-09T03:52:24;99909.72;;;16.02;76.26
73700;BME280;62005;50.082;8.988;2022-09-09T03:54:51;99917.91;;;16.07;76.10
73700;BME280;62005;50.082;8.988;2022-09-09T03:57:18;99919.56;;;16.03;75.87
73700;BME280;62005;50.082;8.988;2022-09-09T03:59:43;99918.44;;;16.04;76.47
73700;BME280;62005;50.082;8.988;2022-09-09T04:02:09;99920.09;;;16.05;76.30
73700;BME280;62005;50.082;8.988;2022-09-09T04:04:34;99914.38;;;16.01;76.32
73700;BME280;62005;50.082;8.988;2022-09-09T04:07:00;99908.09;;;16.01;76.38
73700;BME280;62005;50.082;8.988;2022-09-09T04:09:25;99922.28;;;16.03;76.22
73700;BME280;62005;50.082;8.988;2022-09-09T04:11:50;99882.44;;;15.82;76.60
73700;BME280;62005;50.082;8.988;2022-09-09T04:14:15;99901.53;;;15.97;76.59
73700;BME280;62005;50.082;8.988;2022-09-09T04:16:41;99899.59;;;15.92;76.23
73700;BME280;62005;50.082;8.988;2022-09-09T04:19:10;99905.34;;;15.96;76.27
73700;BME280;62005;50.082;8.988;2022-09-09T04:21:38;99903.19;;;15.98;76.69
73700;BME280;62005;50.082;8.988;2022-09-09T04:24:06;99883.50;;;15.86;77.08
73700;BME280;62005;50.082;8.988;2022-09-09T04:26:32;99919.00;;;16.01;76.40
73700;BME280;62005;50.082;8.988;2022-09-09T04:28:57;99876.13;;;15.76;76.51
73700;BME280;62005;50.082;8.988;2022-09-09T04:31:23;99908.88;;;15.91;76.50
73700;BME280;62005;50.082;8.988;2022-09-09T04:33:49;99926.06;;;16.02;76.70
73700;BME280;62005;50.082;8.988;2022-09-09T04:36:15;99914.34;;;15.91;76.44
73700;BME280;62005;50.082;8.988;2022-09-09T04:38:41;99932.91;;;15.99;76.45
73700;BME280;62005;50.082;8.988;2022-09-09T04:41:07;99908.03;;;15.81;76.90
73700;BME280;62005;50.082;8.988;2022-09-09T04:43:34;99916.78;;;15.88;77.00
73700;BME280;62005;50.082;8.988;2022-09-09T04:45:59;99920.03;;;15.85;77.66
73700;BME280;62005;50.082;8.988;2022-09-09T04:48:25;99907.75;;;15.77;77.08
73700;BME280;62005;50.082;8.988;2022-09-09T04:50:57;99920.28;;;15.78;78.04
73700;BME280;62005;50.082;8.988;2022-09-09T04:53:22;99908.00;;;15.71;76.98
73700;BME280;62005;50.082;8.988;2022-09-09T04:55:48;99924.38;;;15.81;76.93
73700;BME280;62005;50.082;8.988;2022-09-09T04:58:14;99915.66;;;15.79;77.49
73700;BME280;62005;50.082;8.988;2022-09-09T05:00:39;99912.91;;;15.74;77.23
73700;BME280;62005;50.082;8.988;2022-09-09T05:03:05;99931.75;;;15.85;77.67
73700;BME280;62005;50.082;8.988;2022-09-09T05:05:32;99927.13;;;15.86;77.69
73700;BME280;62005;50.082;8.988;2022-09-09T05:08:03;99934.19;;;15.87;77.89
73700;BME280;62005;50.082;8.988;2022-09-09T05:10:29;99931.50;;;15.82;77.95
73700;BME280;62005;50.082;8.988;2022-09-09T05:12:55;99929.81;;;15.76;77.61
73700;BME280;62005;50.082;8.988;2022-09-09T05:15:21;99937.44;;;15.79;77.80
73700;BME280;62005;50.082;8.988;2022-09-09T05:17:46;99938.56;;;15.83;77.75
73700;BME280;62005;50.082;8.988;2022-09-09T05:20:12;99918.94;;;15.81;78.51
73700;BME280;62005;50.082;8.988;2022-09-09T05:22:37;99923.84;;;15.84;77.39
73700;BME280;62005;50.082;8.988;2022-09-09T05:25:03;99926.59;;;15.89;77.41
73700;BME280;62005;50.082;8.988;2022-09-09T05:27:29;99945.72;;;16.09;78.02
73700;BME280;62005;50.082;8.988;2022-09-09T05:29:56;99944.13;;;16.13;77.98
73700;BME280;62005;50.082;8.988;2022-09-09T05:32:22;99951.22;;;16.29;77.10
73700;BME280;62005;50.082;8.988;2022-09-09T05:34:48;99955.59;;;16.40;76.45
73700;BME280;62005;50.082;8.988;2022-09-09T05:37:13;99964.41;;;16.52;76.53
73700;BME280;62005;50.082;8.988;2022-09-09T05:39:38;99960.56;;;16.53;75.82
73700;BME280;62005;50.082;8.988;2022-09-09T05:42:04;99948.84;;;16.52;75.85
73700;BME280;62005;50.082;8.988;2022-09-09T05:44:30;99962.50;;;16.57;75.66
73700;BME280;62005;50.082;8.988;2022-09-09T05:46:55;99972.59;;;16.67;75.63
73700;BME280;62005;50.082;8.988;2022-09-09T05:49:20;99970.44;;;16.69;75.59
73700;BME280;62005;50.082;8.988;2022-09-09T05:51:46;99951.31;;;16.64;75.55
73700;BME280;62005;50.082;8.988;2022-09-09T05:54:13;99976.97;;;16.93;75.54
73700;BME280;62005;50.082;8.988;2022-09-09T05:56:40;99972.59;;;17.07;75.20
73700;BME280;62005;50.082;8.988;2022-09-09T05:59:06;99976.97;;;17.13;74.71
73700;BME280;62005;50.082;8.988;2022-09-09T06:01:33;99986.22;;;17.22;73.88
73700;BME280;62005;50.082;8.988;2022-09-09T06:03:59;99985.13;;;17.33;73.57
73700;BME280;62005;50.082;8.988;2022-09-09T06:06:30;99987.84;;;17.53;73.01
73700;BME280;62005;50.082;8.988;2022-09-09T06:08:56;99969.50;;;17.64;72.33
73700;BME280;62005;50.082;8.988;2022-09-09T06:11:30;99980.16;;;17.65;71.98
73700;BME280;62005;50.082;8.988;2022-09-09T06:13:57;99990.03;;;17.61;72.09
73700;BME280;62005;50.082;8.988;2022-09-09T06:16:24;99986.75;;;17.49;71.90
73700;BME280;62005;50.082;8.988;2022-09-09T06:18:50;99988.41;;;17.40;72.09
73700;BME280;62005;50.082;8.988;2022-09-09T06:21:17;100000.41;;;17.34;72.23
73700;BME280;62005;50.082;8.988;2022-09-09T06:23:43;99961.69;;;17.12;72.42
73700;BME280;62005;50.082;8.988;2022-09-09T06:26:21;99979.69;;;17.08;72.71
73700;BME280;62005;50.082;8.988;2022-09-09T06:28:48;100001.28;;;17.15;73.46
73700;BME280;62005;50.082;8.988;2022-09-09T06:31:15;99996.34;;;17.17;73.64
73700;BME280;62005;50.082;8.988;2022-09-09T06:33:42;99998.25;;;17.16;73.20
73700;BME280;62005;50.082;8.988;2022-09-09T06:36:20;99951.28;;;17.04;73.17
73700;BME280;62005;50.082;8.988;2022-09-09T06:38:46;99919.63;;;16.98;73.06
73700;BME280;62005;50.082;8.988;2022-09-09T06:41:14;99991.44;;;18.17;72.28
73700;BME280;62005;50.082;8.988;2022-09-09T06:43:46;99963.97;;;19.10;68.27
73700;BME280;62005;50.082;8.988;2022-09-09T06:46:34;99985.16;;;19.33;68.00
73700;BME280;62005;50.082;8.988;2022-09-09T06:49:00;99986.47;;;19.07;68.26
73700;BME280;62005;50.082;8.988;2022-09-09T06:51:31;99991.94;;;19.07;69.55
73700;BME280;62005;50.082;8.988;2022-09-09T06:53:58;99986.38;;;19.17;68.47
73700;BME280;62005;50.082;8.988;2022-09-09T06:58:54;99988.84;;;19.47;66.44
73700;BME280;62005;50.082;8.988;2022-09-09T07:01:27;99989.16;;;19.69;65.91
73700;BME280;62005;50.082;8.988;2022-09-09T07:03:55;99981.81;;;19.88;64.91
73700;BME280;62005;50.082;8.988;2022-09-09T07:06:34;99968.47;;;20.00;65.18
73700;BME280;62005;50.082;8.988;2022-09-09T07:09:05;99996.00;;;20.37;65.17
73700;BME280;62005;50.082;8.988;2022-09-09T07:11:34;99988.19;;;20.63;63.53
73700;BME280;62005;50.082;8.988;2022-09-09T07:14:02;99984.84;;;20.85;62.44
73700;BME280;62005;50.082;8.988;2022-09-09T07:16:28;99989.34;;;20.94;61.90
73700;BME280;62005;50.082;8.988;2022-09-09T07:18:56;99986.34;;;20.96;60.77
73700;BME280;62005;50.082;8.988;2022-09-09T07:21:26;99962.00;;;20.70;60.34
73700;BME280;62005;50.082;8.988;2022-09-09T07:23:52;99954.00;;;20.55;61.10
73700;BME280;62005;50.082;8.988;2022-09-09T07:26:21;99960.09;;;20.52;60.68
73700;BME280;62005;50.082;8.988;2022-09-09T07:28:49;99967.50;;;20.70;61.81
73700;BME280;62005;50.082;8.988;2022-09-09T07:31:20;99986.31;;;21.14;60.59
73700;BME280;62005;50.082;8.988;2022-09-09T07:33:46;99988.75;;;21.16;60.57
73700;BME280;62005;50.082;8.988;2022-09-09T07:36:13;100004.53;;;21.10;60.49
73700;BME280;62005;50.082;8.988;2022-09-09T07:38:44;99984.25;;;20.88;59.63
73700;BME280;62005;50.082;8.988;2022-09-09T07:41:14;99995.19;;;20.74;60.00
73700;BME280;62005;50.082;8.988;2022-09-09T07:43:43;100005.44;;;20.68;60.60
73700;BME280;62005;50.082;8.988;2022-09-09T07:46:10;100013.69;;;20.68;61.96
73700;BME280;62005;50.082;8.988;2022-09-09T07:48:35;100002.00;;;20.58;60.55
73700;BME280;62005;50.082;8.988;2022-09-09T07:51:14;100001.78;;;20.54;61.43
73700;BME280;62005;50.082;8.988;2022-09-09T07:53:44;100006.25;;;20.50;61.37
73700;BME280;62005;50.082;8.988;2022-09-09T07:56:15;100008.38;;;20.35;61.78
73700;BME280;62005;50.082;8.988;2022-09-09T07:58:47;100020.38;;;20.20;62.67
73700;BME280;62005;50.082;8.988;2022-09-09T08:01:19;99976.38;;;19.83;64.63
73700;BME280;62005;50.082;8.988;2022-09-09T08:03:46;99981.41;;;19.76;64.31
73700;BME280;62005;50.082;8.988;2022-09-09T08:06:12;100016.34;;;19.89;64.25
73700;BME280;62005;50.082;8.988;2022-09-09T08:08:38;100032.34;;;19.82;63.84
73700;BME280;62005;50.082;8.988;2022-09-09T08:11:08;100031.84;;;19.75;63.80
73700;BME280;62005;50.082;8.988;2022-09-09T08:13:38;100022.16;;;19.59;63.82
73700;BME280;62005;50.082;8.988;2022-09-09T08:16:12;100046.31;;;19.57;63.50
73700;BME280;62005;50.082;8.988;2022-09-09T08:18:38;100042.25;;;19.55;64.65
73700;BME280;62005;50.082;8.988;2022-09-09T08:21:18;100045.31;;;19.48;64.98
73700;BME280;62005;50.082;8.988;2022-09-09T08:23:45;100050.28;;;19.46;65.50
73700;BME280;62005;50.082;8.988;2022-09-09T08:26:19;100048.66;;;19.45;65.94
73700;BME280;62005;50.082;8.988;2022-09-09T08:28:51;100024.06;;;19.35;65.83
73700;BME280;62005;50.082;8.988;2022-09-09T08:31:20;100050.13;;;19.61;65.76
73700;BME280;62005;50.082;8.988;2022-09-09T08:33:47;100052.78;;;19.71;65.72
73700;BME280;62005;50.082;8.988;2022-09-09T08:36:19;100045.41;;;19.90;65.50
73700;BME280;62005;50.082;8.988;2022-09-09T08:38:49;100056.16;;;20.10;63.63
73700;BME280;62005;50.082;8.988;2022-09-09T08:44:07;100052.66;;;20.28;63.52
73700;BME280;62005;50.082;8.988;2022-09-09T08:51:53;100048.72;;;20.39;61.78
73700;BME280;62005;50.082;8.988;2022-09-09T08:54:20;100049.06;;;20.51;61.98
73700;BME280;62005;50.082;8.988;2022-09-09T08:56:45;100017.84;;;20.47;61.29
73700;BME280;62005;50.082;8.988;2022-09-09T08:59:15;100066.31;;;20.76;61.29
73700;BME280;62005;50.082;8.988;2022-09-09T09:02:05;100042.63;;;20.80;60.68
73700;BME280;62005;50.082;8.988;2022-09-09T09:10:37;100064.38;;;20.95;60.14
73700;BME280;62005;50.082;8.988;2022-09-09T09:13:19;100054.41;;;21.04;59.28
73700;BME280;62005;50.082;8.988;2022-09-09T09:16:02;100041.59;;;21.13;59.06
73700;BME280;62005;50.082;8.988;2022-09-09T09:18:31;100045.28;;;21.22;59.38
73700;BME280;62005;50.082;8.988;2022-09-09T09:23:55;100039.03;;;21.35;57.51
73700;BME280;62005;50.082;8.988;2022-09-09T09:26:24;100042.03;;;21.20;57.38
73700;BME280;62005;50.082;8.988;2022-09-09T09:28:54;100044.63;;;21.11;58.96
73700;BME280;62005;50.082;8.988;2022-09-09T09:31:22;100041.28;;;20.96;59.64
73700;BME280;62005;50.082;8.988;2022-09-09T09:33:50;100029.56;;;20.71;59.47
73700;BME280;62005;50.082;8.988;2022-09-09T09:36:18;100057.25;;;20.75;59.85
73700;BME280;62005;50.082;8.988;2022-09-09T09:39:01;100043.59;;;20.70;60.03
73700;BME280;62005;50.082;8.988;2022-09-09T09:41:38;100050.59;;;20.62;59.93
73700;BME280;62005;50.082;8.988;2022-09-09T09:44:04;100050.19;;;20.50;61.38
73700;BME280;62005;50.082;8.988;2022-09-09T09:46:32;100049.66;;;20.48;61.63
73700;BME280;62005;50.082;8.988;2022-09-09T09:49:03;100049.13;;;20.46;61.97
73700;BME280;62005;50.082;8.988;2022-09-09T09:51:31;100026.50;;;20.36;62.69
73700;BME280;62005;50.082;8.988;2022-09-09T09:54:27;100037.38;;;20.22;64.59
73700;BME280;62005;50.082;8.988;2022-09-09T09:56:54;100043.47;;;20.19;65.67
73700;BME280;62005;50.082;8.988;2022-09-09T09:59:38;100022.63;;;20.13;65.57
73700;BME280;62005;50.082;8.988;2022-09-09T10:02:31;100011.91;;;19.93;65.50
73700;BME280;62005;50.082;8.988;2022-09-09T10:05:12;100048.34;;;19.99;66.25
73700;BME280;62005;50.082;8.988;2022-09-09T10:07:38;100025.22;;;19.81;66.30
73700;BME280;62005;50.082;8.988;2022-09-09T10:10:04;100033.84;;;19.93;66.99
73700;BME280;62005;50.082;8.988;2022-09-09T10:17:53;100032.38;;;20.66;64.94
73700;BME280;62005;50.082;8.988;2022-09-09T10:20:32;100022.13;;;20.91;63.87
73700;BME280;62005;50.082;8.988;2022-09-09T10:31:47;100028.25;;;21.52;60.08
73700;BME280;62005;50.082;8.988;2022-09-09T10:37:16;100020.50;;;21.54;58.99
73700;BME280;62005;50.082;8.988;2022-09-09T10:39:50;100010.34;;;21.54;59.15
73700;BME280;62005;50.082;8.988;2022-09-09T10:42:20;100010.78;;;21.75;59.78
73700;BME280;62005;50.082;8.988;2022-09-09T10:53:08;99963.59;;;21.68;56.97
73700;BME280;62005;50.082;8.988;2022-09-09T10:55:39;99992.63;;;21.74;57.90
73700;BME280;62005;50.082;8.988;2022-09-09T10:58:14;99999.69;;;21.80;58.35
73700;BME280;62005;50.082;8.988;2022-09-09T11:00:46;99967.16;;;21.95;57.90
73700;BME280;62005;50.082;8.988;2022-09-09T11:03:19;99982.63;;;22.32;58.04
73700;BME280;62005;50.082;8.988;2022-09-09T11:05:53;99980.53;;;22.51;55.64
73700;BME280;62005;50.082;8.988;2022-09-09T11:08:24;99948.19;;;22.57;53.75
73700;BME280;62005;50.082;8.988;2022-09-09T11:11:03;99978.97;;;22.94;53.64
73700;BME280;62005;50.082;8.988;2022-09-09T11:13:53;99970.97;;;23.06;52.79
73700;BME280;62005;50.082;8.988;2022-09-09T11:16:30;99980.72;;;23.12;50.54
73700;BME280;62005;50.082;8.988;2022-09-09T11:21:38;99977.56;;;22.61;50.85
73700;BME280;62005;50.082;8.988;2022-09-09T11:24:31;99986.25;;;22.41;51.80
73700;BME280;62005;50.082;8.988;2022-09-09T11:29:49;99997.91;;;22.25;53.03
73700;BME280;62005;50.082;8.988;2022-09-09T11:35:07;100003.25;;;22.08;54.05
73700;BME280;62005;50.082;8.988;2022-09-09T11:40:18;100006.66;;;21.59;55.50
73700;BME280;62005;50.082;8.988;2022-09-09T11:42:46;100013.81;;;21.60;54.89
73700;BME280;62005;50.082;8.988;2022-09-09T11:45:23;100015.97;;;21.63;54.78
73700;BME280;62005;50.082;8.988;2022-09-09T11:47:53;100010.56;;;21.58;53.64
73700;BME280;62005;50.082;8.988;2022-09-09T11:52:46;100017.19;;;21.25;52.81
73700;BME280;62005;50.082;8.988;2022-09-09T11:55:30;100009.03;;;21.20;53.60
73700;BME280;62005;50.082;8.988;2022-09-09T11:57:59;100022.47;;;21.21;52.27
73700;BME280;62005;50.082;8.988;2022-09-09T12:00:43;100010.03;;;21.24;52.26
73700;BME280;62005;50.082;8.988;2022-09-09T12:03:48;100016.69;;;21.23;51.59
73700;BME280;62005;50.082;8.988;2022-09-09T12:06:41;100016.31;;;21.11;52.25
73700;BME280;62005;50.082;8.988;2022-09-09T12:11:32;100000.31;;;21.31;53.24
73700;BME280;62005;50.082;8.988;2022-09-09T12:14:00;99990.53;;;21.39;53.37
73700;BME280;62005;50.082;8.988;2022-09-09T12:16:36;100006.66;;;21.59;52.84
73700;BME280;62005;50.082;8.988;2022-09-09T12:19:22;99978.38;;;21.58;52.53
73700;BME280;62005;50.082;8.988;2022-09-09T12:22:06;99988.34;;;21.68;53.66
73700;BME280;62005;50.082;8.988;2022-09-09T12:24:40;99991.41;;;21.66;54.39
73700;BME280;62005;50.082;8.988;2022-09-09T12:27:23;99986.69;;;21.67;53.79
73700;BME280;62005;50.082;8.988;2022-09-09T12:30:02;99975.50;;;21.50;54.38
73700;BME280;62005;50.082;8.988;2022-09-09T12:32:28;99991.00;;;21.73;54.67
73700;BME280;62005;50.082;8.988;2022-09-09T12:35:02;99988.78;;;21.75;54.40
73700;BME280;62005;50.082;8.988;2022-09-09T12:37:35;99994.84;;;21.72;54.77
73700;BME280;62005;50.082;8.988;2022-09-09T12:42:47;99988.78;;;21.75;58.31
73700;BME280;62005;50.082;8.988;2022-09-09T12:45:24;99966.34;;;21.68;56.39
73700;BME280;62005;50.082;8.988;2022-09-09T12:47:55;99977.56;;;21.85;57.85
73700;BME280;62005;50.082;8.988;2022-09-09T12:50:32;99963.69;;;21.90;58.43
73700;BME280;62005;50.082;8.988;2022-09-09T12:53:03;99965.50;;;22.08;58.39
73700;BME280;62005;50.082;8.988;2022-09-09T12:55:35;99965.91;;;22.15;58.10
73700;BME280;62005;50.082;8.988;2022-09-09T12:58:02;99966.13;;;22.19;56.89
73700;BME280;62005;50.082;8.988;2022-09-09T13:00:33;99971.22;;;22.25;55.68
73700;BME280;62005;50.082;8.988;2022-09-09T13:03:16;99965.06;;;22.28;54.53
73700;BME280;62005;50.082;8.988;2022-09-09T13:05:41;99977.13;;;22.32;56.48
73700;BME280;62005;50.082;8.988;2022-09-09T13:08:14;99962.44;;;22.23;53.17
73700;BME280;62005;50.082;8.988;2022-09-09T13:10:42;99968.25;;;22.22;51.83
73700;BME280;62005;50.082;8.988;2022-09-09T13:13:20;99937.81;;;21.91;52.63
73700;BME280;62005;50.082;8.988;2022-09-09T13:15:54;99975.53;;;22.04;54.18
73700;BME280;62005;50.082;8.988;2022-09-09T13:18:40;99967.16;;;21.82;56.65
73700;BME280;62005;50.082;8.988;2022-09-09T13:21:07;99975.44;;;21.82;58.96
73700;BME280;62005;50.082;8.988;2022-09-09T13:23:34;99946.34;;;21.49;58.94
73700;BME280;62005;50.082;8.988;2022-09-09T13:26:22;99969.81;;;21.60;59.24
73700;BME280;62005;50.082;8.988;2022-09-09T13:28:48;99975.88;;;21.57;59.58
73700;BME280;62005;50.082;8.988;2022-09-09T13:31:23;99957.13;;;21.45;59.78
73700;BME280;62005;50.082;8.988;2022-09-09T13:33:49;99955.06;;;21.24;58.55
73700;BME280;62005;50.082;8.988;2022-09-09T13:36:14;99955.66;;;21.21;59.66
73700;BME280;62005;50.082;8.988;2022-09-09T13:38:59;99983.59;;;21.28;59.79
73700;BME280;62005;50.082;8.988;2022-09-09T13:41:28;99998.88;;;21.34;60.02
73700;BME280;62005;50.082;8.988;2022-09-09T13:43:55;99991.13;;;21.36;60.77
73700;BME280;62005;50.082;8.988;2022-09-09T13:46:39;99980.66;;;21.38;61.38
73700;BME280;62005;50.082;8.988;2022-09-09T13:54:04;99988.13;;;21.51;61.29
73700;BME280;62005;50.082;8.988;2022-09-09T13:56:31;99979.97;;;21.46;61.26
73700;BME280;62005;50.082;8.988;2022-09-09T13:58:57;99964.69;;;21.40;61.45
73700;BME280;62005;50.082;8.988;2022-09-09T14:01:23;99915.13;;;21.13;61.30
73700;BME280;62005;50.082;8.988;2022-09-09T14:03:48;99983.84;;;21.45;61.31
73700;BME280;62005;50.082;8.988;2022-09-09T14:06:14;99977.31;;;21.41;61.17
73700;BME280;62005;50.082;8.988;2022-09-09T14:08:39;99978.94;;;21.42;61.24
73700;BME280;62005;50.082;8.988;2022-09-09T14:11:05;99984.44;;;21.42;59.14
73700;BME280;62005;50.082;8.988;2022-09-09T14:13:31;99990.94;;;21.32;56.16
73700;BME280;62005;50.082;8.988;2022-09-09T14:15:56;100006.63;;;21.32;56.05
73700;BME280;62005;50.082;8.988;2022-09-09T14:18:21;99999.03;;;21.24;56.10
73700;BME280;62005;50.082;8.988;2022-09-09T14:20:48;100002.53;;;21.29;55.75
73700;BME280;62005;50.082;8.988;2022-09-09T14:23:15;99970.72;;;21.10;56.37
73700;BME280;62005;50.082;8.988;2022-09-09T14:25:42;99990.31;;;21.22;55.10
73700;BME280;62005;50.082;8.988;2022-09-09T14:28:12;100003.88;;;21.32;55.04
73700;BME280;62005;50.082;8.988;2022-09-09T14:30:39;100001.53;;;21.39;55.05
73700;BME280;62005;50.082;8.988;2022-09-09T14:33:07;99993.38;;;21.34;54.23
73700;BME280;62005;50.082;8.988;2022-09-09T14:35:34;99997.59;;;21.45;54.26
73700;BME280;62005;50.082;8.988;2022-09-09T14:38:00;99989.13;;;21.41;53.32
73700;BME280;62005;50.082;8.988;2022-09-09T14:40:28;99992.19;;;21.40;53.33
73700;BME280;62005;50.082;8.988;2022-09-09T14:42:53;99991.13;;;21.36;54.33
73700;BME280;62005;50.082;8.988;2022-09-09T14:45:19;99992.38;;;21.30;52.93
73700;BME280;62005;50.082;8.988;2022-09-09T14:47:46;99984.72;;;21.27;53.32
73700;BME280;62005;50.082;8.988;2022-09-09T14:50:11;99948.38;;;20.98;53.43
73700;BME280;62005;50.082;8.988;2022-09-09T14:52:37;99986.69;;;21.08;54.13
73700;BME280;62005;50.082;8.988;2022-09-09T14:55:03;99966.44;;;21.04;55.12
73700;BME280;62005;50.082;8.988;2022-09-09T14:57:28;99965.41;;;21.00;55.25
73700;BME280;62005;50.082;8.988;2022-09-09T14:59:54;99957.66;;;21.02;55.32